sensor_id;sensor_type;location;lat;lon;timestamp;pressure;altitude;pressure_sealevel;temperature;humidity
3598;BME280;1813;52.016;8.714;2023-04-01T00:01:48;-16261.94;;;-139.71;87.34
3598;BME280;1813;52.016;8.714;2023-04-01T00:04:24;-16261.94;;;-139.71;87.14
3598;BME280;1813;52.016;8.714;2023-04-01T00:06:58;-16261.94;;;-139.71;87.10
3598;BME280;1813;52.016;8.714;2023-04-01T00:09:32;-16261.94;;;-139.71;86.87
3598;BME280;1813;52.016;8.714;2023-04-01T00:12:06;-16261.94;;;-139.71;86.71
3598;BME280;1813;52.016;8.714;2023-04-01T00:14:40;-16261.94;;;-139.71;86.33
3598;BME280;1813;52.016;8.714;2023-04-01T00:17:14;-16261.94;;;-139.71;86.16
3598;BME280;1813;52.016;8.714;2023-04-01T00:19:50;-16261.94;;;-139.71;85.93
3598;BME280;1813;52.016;8.714;2023-04-01T00:22:24;-16261.94;;;-139.71;85.94
3598;BME280;1813;52.016;8.714;2023-04-01T00:24:58;-16261.94;;;-139.71;85.94
3598;BME280;1813;52.016;8.714;2023-04-01T00:27:33;-16261.94;;;-139.71;85.91
3598;BME280;1813;52.016;8.714;2023-04-01T00:30:08;-16261.94;;;-139.71;85.87
3598;BME280;1813;52.016;8.714;2023-04-01T00:32:43;-16261.94;;;-139.71;86.09
3598;BME280;1813;52.016;8.714;2023-04-01T00:35:20;-16261.94;;;-139.71;86.10
3598;BME280;1813;52.016;8.714;2023-04-01T00:37:54;-16261.94;;;-139.71;86.26
3598;BME280;1813;52.016;8.714;2023-04-01T00:40:30;-16261.94;;;-139.71;86.19
3598;BME280;1813;52.016;8.714;2023-04-01T00:43:10;-16261.94;;;-139.71;86.21
3598;BME280;1813;52.016;8.714;2023-04-01T00:45:45;-16261.94;;;-139.71;86.15
3598;BME280;1813;52.016;8.714;2023-04-01T00:48:23;-16261.94;;;-139.71;86.00
3598;BME280;1813;52.016;8.714;2023-04-01T00:51:02;-16261.94;;;-139.71;85.77
3598;BME280;1813;52.016;8.714;2023-04-01T00:53:41;-16261.94;;;-139.71;85.83
3598;BME280;1813;52.016;8.714;2023-04-01T00:56:19;-16261.94;;;-139.71;85.77
3598;BME280;1813;52.016;8.714;2023-04-01T00:58:58;-16261.94;;;-139.71;85.71
3598;BME280;1813;52.016;8.714;2023-04-01T01:01:34;-16261.94;;;-139.71;85.79
3598;BME280;1813;52.016;8.714;2023-04-01T01:04:21;-16261.94;;;-139.71;85.77
3598;BME280;1813;52.016;8.714;2023-04-01T01:07:06;-16261.94;;;-139.71;85.91
3598;BME280;1813;52.016;8.714;2023-04-01T01:09:46;-16261.94;;;-139.71;86.32
3598;BME280;1813;52.016;8.714;2023-04-01T01:12:30;-16261.94;;;-139.71;86.40
3598;BME280;1813;52.016;8.714;2023-04-01T01:15:11;-16261.94;;;-139.71;86.61
3598;BME280;1813;52.016;8.714;2023-04-01T01:17:56;-16261.94;;;-139.71;86.79
3598;BME280;1813;52.016;8.714;2023-04-01T01:21:04;-16261.94;;;-139.71;86.69
3598;BME280;1813;52.016;8.714;2023-04-01T01:24:13;-16261.94;;;-139.71;86.25
3598;BME280;1813;52.016;8.714;2023-04-01T01:26:58;-16261.94;;;-139.71;86.21
3598;BME280;1813;52.016;8.714;2023-04-01T01:32:46;-16261.94;;;-139.71;85.37
3598;BME280;1813;52.016;8.714;2023-04-01T01:35:33;-16261.94;;;-139.71;84.96
3598;BME280;1813;52.016;8.714;2023-04-01T01:38:16;-16261.94;;;-139.71;84.47
3598;BME280;1813;52.016;8.714;2023-04-01T01:40:59;-16261.94;;;-139.71;84.33
3598;BME280;1813;52.016;8.714;2023-04-01T01:43:37;-16261.94;;;-139.71;84.31
3598;BME280;1813;52.016;8.714;2023-04-01T01:46:15;-16261.94;;;-139.71;84.26
3598;BME280;1813;52.016;8.714;2023-04-01T01:48:50;-16261.94;;;-139.71;84.27
3598;BME280;1813;52.016;8.714;2023-04-01T01:51:28;-16261.94;;;-139.71;84.58
3598;BME280;1813;52.016;8.714;2023-04-01T01:54:04;-16261.94;;;-139.71;84.72
3598;BME280;1813;52.016;8.714;2023-04-01T01:56:38;-16261.94;;;-139.71;84.95
3598;BME280;1813;52.016;8.714;2023-04-01T01:59:15;-16261.94;;;-139.71;84.91
3598;BME280;1813;52.016;8.714;2023-04-01T02:01:51;-16261.94;;;-139.71;85.06
3598;BME280;1813;52.016;8.714;2023-04-01T02:04:27;-16261.94;;;-139.71;84.85
3598;BME280;1813;52.016;8.714;2023-04-01T02:07:07;-16261.94;;;-139.71;84.73
3598;BME280;1813;52.016;8.714;2023-04-01T02:09:42;-16261.94;;;-139.71;84.57
3598;BME280;1813;52.016;8.714;2023-04-01T02:12:17;-16261.94;;;-139.71;84.27
3598;BME280;1813;52.016;8.714;2023-04-01T02:14:55;-16261.94;;;-139.71;84.38
3598;BME280;1813;52.016;8.714;2023-04-01T02:17:31;-16261.94;;;-139.71;84.71
3598;BME280;1813;52.016;8.714;2023-04-01T02:20:09;-16261.94;;;-139.71;84.75
3598;BME280;1813;52.016;8.714;2023-04-01T02:22:51;-16261.94;;;-139.71;85.16
3598;BME280;1813;52.016;8.714;2023-04-01T02:25:28;-16261.94;;;-139.71;85.26
3598;BME280;1813;52.016;8.714;2023-04-01T02:28:04;-16261.94;;;-139.71;85.62
3598;BME280;1813;52.016;8.714;2023-04-01T02:30:40;-16261.94;;;-139.71;85.64
3598;BME280;1813;52.016;8.714;2023-04-01T02:33:19;-16261.94;;;-139.71;85.67
3598;BME280;1813;52.016;8.714;2023-04-01T02:35:54;-16261.94;;;-139.71;85.61
3598;BME280;1813;52.016;8.714;2023-04-01T02:38:31;-16261.94;;;-139.71;85.82
3598;BME280;1813;52.016;8.714;2023-04-01T02:41:05;-16261.94;;;-139.71;86.10
3598;BME280;1813;52.016;8.714;2023-04-01T02:43:39;-16261.94;;;-139.71;86.17
3598;BME280;1813;52.016;8.714;2023-04-01T02:46:13;-16261.94;;;-139.71;86.21
3598;BME280;1813;52.016;8.714;2023-04-01T02:48:47;-16261.94;;;-139.71;86.46
3598;BME280;1813;52.016;8.714;2023-04-01T02:51:20;-16261.94;;;-139.71;86.30
3598;BME280;1813;52.016;8.714;2023-04-01T02:53:57;-16261.94;;;-139.71;86.60
3598;BME280;1813;52.016;8.714;2023-04-01T02:56:31;-16261.94;;;-139.71;86.44
3598;BME280;1813;52.016;8.714;2023-04-01T02:59:05;-16261.94;;;-139.71;86.40
3598;BME280;1813;52.016;8.714;2023-04-01T03:01:39;-16261.94;;;-139.71;86.49
3598;BME280;1813;52.016;8.714;2023-04-01T03:04:13;-16261.94;;;-139.71;86.44
3598;BME280;1813;52.016;8.714;2023-04-01T03:06:46;-16261.94;;;-139.71;86.27
3598;BME280;1813;52.016;8.714;2023-04-01T03:09:23;-16261.94;;;-139.71;86.27
3598;BME280;1813;52.016;8.714;2023-04-01T03:11:57;-16261.94;;;-139.71;86.31
3598;BME280;1813;52.016;8.714;2023-04-01T03:14:32;-16261.94;;;-139.71;86.11
3598;BME280;1813;52.016;8.714;2023-04-01T03:17:06;-16261.94;;;-139.71;86.07
3598;BME280;1813;52.016;8.714;2023-04-01T03:19:40;-16261.94;;;-139.71;85.92
3598;BME280;1813;52.016;8.714;2023-04-01T03:22:15;-16261.94;;;-139.71;85.79
3598;BME280;1813;52.016;8.714;2023-04-01T03:24:54;-16261.94;;;-139.71;85.82
3598;BME280;1813;52.016;8.714;2023-04-01T03:27:28;-16261.94;;;-139.71;85.86
3598;BME280;1813;52.016;8.714;2023-04-01T03:30:03;-16261.94;;;-139.71;85.74
3598;BME280;1813;52.016;8.714;2023-04-01T03:32:42;-16261.94;;;-139.71;85.84
3598;BME280;1813;52.016;8.714;2023-04-01T03:35:17;-16261.94;;;-139.71;85.79
3598;BME280;1813;52.016;8.714;2023-04-01T03:37:53;-16261.94;;;-139.71;85.86
3598;BME280;1813;52.016;8.714;2023-04-01T03:40:29;-16261.94;;;-139.71;85.78
3598;BME280;1813;52.016;8.714;2023-04-01T03:43:04;-16261.94;;;-139.71;85.95
3598;BME280;1813;52.016;8.714;2023-04-01T03:45:43;-16261.94;;;-139.71;85.95
3598;BME280;1813;52.016;8.714;2023-04-01T03:48:18;-16261.94;;;-139.71;86.05
3598;BME280;1813;52.016;8.714;2023-04-01T03:50:52;-16261.94;;;-139.71;86.28
3598;BME280;1813;52.016;8.714;2023-04-01T03:53:27;-16261.94;;;-139.71;86.36
3598;BME280;1813;52.016;8.714;2023-04-01T03:56:08;-16261.94;;;-139.71;86.39
3598;BME280;1813;52.016;8.714;2023-04-01T03:58:42;-16261.94;;;-139.71;86.52
3598;BME280;1813;52.016;8.714;2023-04-01T04:01:18;-16261.94;;;-139.71;86.60
3598;BME280;1813;52.016;8.714;2023-04-01T04:03:56;-16261.94;;;-139.71;86.89
3598;BME280;1813;52.016;8.714;2023-04-01T04:06:32;-16261.94;;;-139.71;86.91
3598;BME280;1813;52.016;8.714;2023-04-01T04:09:06;-16261.94;;;-139.71;87.09
3598;BME280;1813;52.016;8.714;2023-04-01T04:11:43;-16261.94;;;-139.71;86.90
3598;BME280;1813;52.016;8.714;2023-04-01T04:14:17;-16261.94;;;-139.71;87.08
3598;BME280;1813;52.016;8.714;2023-04-01T04:16:52;-16261.94;;;-139.71;87.12
3598;BME280;1813;52.016;8.714;2023-04-01T04:19:26;-16261.94;;;-139.71;87.19
3598;BME280;1813;52.016;8.714;2023-04-01T04:22:05;-16261.94;;;-139.71;87.20
3598;BME280;1813;52.016;8.714;2023-04-01T04:24:39;-16261.94;;;-139.71;87.00
3598;BME280;1813;52.016;8.714;2023-04-01T04:27:22;-16261.94;;;-139.71;87.15
3598;BME280;1813;52.016;8.714;2023-04-01T04:30:10;-16261.94;;;-139.71;87.02
3598;BME280;1813;52.016;8.714;2023-04-01T04:32:44;-16261.94;;;-139.71;86.96
3598;BME280;1813;52.016;8.714;2023-04-01T04:35:18;-16261.94;;;-139.71;86.99
3598;BME280;1813;52.016;8.714;2023-04-01T04:37:52;-16261.94;;;-139.71;86.94
3598;BME280;1813;52.016;8.714;2023-04-01T04:40:27;-16261.94;;;-139.71;86.84
3598;BME280;1813;52.016;8.714;2023-04-01T04:43:04;-16261.94;;;-139.71;86.81
3598;BME280;1813;52.016;8.714;2023-04-01T04:45:38;-16261.94;;;-139.71;86.87
3598;BME280;1813;52.016;8.714;2023-04-01T04:48:14;-16261.94;;;-139.71;86.80
3598;BME280;1813;52.016;8.714;2023-04-01T04:50:50;-16261.94;;;-139.71;87.00
3598;BME280;1813;52.016;8.714;2023-04-01T04:53:27;-16261.94;;;-139.71;87.01
3598;BME280;1813;52.016;8.714;2023-04-01T04:56:01;-16261.94;;;-139.71;87.16
3598;BME280;1813;52.016;8.714;2023-04-01T04:58:54;-16261.94;;;-139.71;87.12
3598;BME280;1813;52.016;8.714;2023-04-01T05:01:33;-16261.94;;;-139.71;87.24
3598;BME280;1813;52.016;8.714;2023-04-01T05:04:07;-16261.94;;;-139.71;87.27
3598;BME280;1813;52.016;8.714;2023-04-01T05:06:43;-16261.94;;;-139.71;87.24
3598;BME280;1813;52.016;8.714;2023-04-01T05:09:18;-16261.94;;;-139.71;87.25
3598;BME280;1813;52.016;8.714;2023-04-01T05:11:52;-16261.94;;;-139.71;87.20
3598;BME280;1813;52.016;8.714;2023-04-01T05:14:30;-16261.94;;;-139.71;87.21
3598;BME280;1813;52.016;8.714;2023-04-01T05:17:11;-16261.94;;;-139.71;87.11
3598;BME280;1813;52.016;8.714;2023-04-01T05:19:46;-16261.94;;;-139.71;87.24
3598;BME280;1813;52.016;8.714;2023-04-01T05:22:19;-16261.94;;;-139.71;87.12
3598;BME280;1813;52.016;8.714;2023-04-01T05:24:54;-16261.94;;;-139.71;87.04
3598;BME280;1813;52.016;8.714;2023-04-01T05:27:29;-16261.94;;;-139.71;87.15
3598;BME280;1813;52.016;8.714;2023-04-01T05:30:07;-16261.94;;;-139.71;87.17
3598;BME280;1813;52.016;8.714;2023-04-01T05:32:49;-16261.94;;;-139.71;87.22
3598;BME280;1813;52.016;8.714;2023-04-01T05:35:23;-16261.94;;;-139.71;87.23
3598;BME280;1813;52.016;8.714;2023-04-01T05:37:57;-16261.94;;;-139.71;87.33
3598;BME280;1813;52.016;8.714;2023-04-01T05:40:31;-16261.94;;;-139.71;87.28
3598;BME280;1813;52.016;8.714;2023-04-01T05:43:06;-16261.94;;;-139.71;87.25
3598;BME280;1813;52.016;8.714;2023-04-01T05:45:43;-16261.94;;;-139.71;87.37
3598;BME280;1813;52.016;8.714;2023-04-01T05:48:17;-16261.94;;;-139.71;87.42
3598;BME280;1813;52.016;8.714;2023-04-01T05:50:50;-16261.94;;;-139.71;87.18
3598;BME280;1813;52.016;8.714;2023-04-01T05:53:24;-16261.94;;;-139.71;87.29
3598;BME280;1813;52.016;8.714;2023-04-01T05:56:02;-16261.94;;;-139.71;87.14
3598;BME280;1813;52.016;8.714;2023-04-01T05:58:41;-16261.94;;;-139.71;87.26
3598;BME280;1813;52.016;8.714;2023-04-01T06:01:18;-16261.94;;;-139.71;87.35
3598;BME280;1813;52.016;8.714;2023-04-01T06:03:52;-16261.94;;;-139.71;87.37
3598;BME280;1813;52.016;8.714;2023-04-01T06:06:27;-16261.94;;;-139.71;87.49
3598;BME280;1813;52.016;8.714;2023-04-01T06:09:13;-16261.94;;;-139.71;87.83
3598;BME280;1813;52.016;8.714;2023-04-01T06:12:13;-16261.94;;;-139.71;87.74
3598;BME280;1813;52.016;8.714;2023-04-01T06:15:15;-16261.94;;;-139.71;88.02
3598;BME280;1813;52.016;8.714;2023-04-01T06:18:19;-16261.94;;;-139.71;88.20
3598;BME280;1813;52.016;8.714;2023-04-01T06:21:00;-16261.94;;;-139.71;88.43
3598;BME280;1813;52.016;8.714;2023-04-01T06:23:48;-16261.94;;;-139.71;89.03
3598;BME280;1813;52.016;8.714;2023-04-01T06:26:33;-16261.94;;;-139.71;89.31
3598;BME280;1813;52.016;8.714;2023-04-01T06:32:22;-16261.94;;;-139.71;89.88
3598;BME280;1813;52.016;8.714;2023-04-01T06:38:34;-16261.94;;;-139.71;90.06
3598;BME280;1813;52.016;8.714;2023-04-01T06:41:37;-16261.94;;;-139.71;90.42
3598;BME280;1813;52.016;8.714;2023-04-01T06:44:18;-16261.94;;;-139.71;90.44
3598;BME280;1813;52.016;8.714;2023-04-01T06:47:26;-16261.94;;;-139.71;89.94
3598;BME280;1813;52.016;8.714;2023-04-01T06:50:41;-16261.94;;;-139.71;89.99
3598;BME280;1813;52.016;8.714;2023-04-01T06:53:43;-16261.94;;;-139.71;90.17
3598;BME280;1813;52.016;8.714;2023-04-01T06:56:41;-16261.94;;;-139.71;90.27
3598;BME280;1813;52.016;8.714;2023-04-01T06:59:30;-16261.94;;;-139.71;90.47
3598;BME280;1813;52.016;8.714;2023-04-01T07:02:19;-16261.94;;;-139.71;90.45
3598;BME280;1813;52.016;8.714;2023-04-01T07:04:58;-16261.94;;;-139.71;90.36
3598;BME280;1813;52.016;8.714;2023-04-01T07:07:39;-16261.94;;;-139.71;90.18
3598;BME280;1813;52.016;8.714;2023-04-01T07:10:20;-16261.94;;;-139.71;90.19
3598;BME280;1813;52.016;8.714;2023-04-01T07:13:20;-16261.94;;;-139.71;89.95
3598;BME280;1813;52.016;8.714;2023-04-01T07:16:07;-16261.94;;;-139.71;90.09
3598;BME280;1813;52.016;8.714;2023-04-01T07:18:49;-16261.94;;;-139.71;89.86
3598;BME280;1813;52.016;8.714;2023-04-01T07:21:32;-16261.94;;;-139.71;89.91
3598;BME280;1813;52.016;8.714;2023-04-01T07:24:23;-16261.94;;;-139.71;89.78
3598;BME280;1813;52.016;8.714;2023-04-01T07:27:12;-16261.94;;;-139.71;89.62
3598;BME280;1813;52.016;8.714;2023-04-01T07:29:48;-16261.94;;;-139.71;89.46
3598;BME280;1813;52.016;8.714;2023-04-01T07:32:30;-16261.94;;;-139.71;89.12
3598;BME280;1813;52.016;8.714;2023-04-01T07:35:14;-16261.94;;;-139.71;89.27
3598;BME280;1813;52.016;8.714;2023-04-01T07:38:08;-16261.94;;;-139.71;89.23
3598;BME280;1813;52.016;8.714;2023-04-01T07:40:50;-16261.94;;;-139.71;89.08
3598;BME280;1813;52.016;8.714;2023-04-01T07:43:52;-16261.94;;;-139.71;89.13
3598;BME280;1813;52.016;8.714;2023-04-01T07:46:46;-16261.94;;;-139.71;88.95
3598;BME280;1813;52.016;8.714;2023-04-01T07:49:29;-16261.94;;;-139.71;89.16
3598;BME280;1813;52.016;8.714;2023-04-01T07:52:08;-16261.94;;;-139.71;89.43
3598;BME280;1813;52.016;8.714;2023-04-01T07:54:51;-16261.94;;;-139.71;89.59
3598;BME280;1813;52.016;8.714;2023-04-01T07:57:34;-16261.94;;;-139.71;89.76
3598;BME280;1813;52.016;8.714;2023-04-01T08:00:13;-16261.94;;;-139.71;89.96
3598;BME280;1813;52.016;8.714;2023-04-01T08:03:23;-16261.94;;;-139.71;90.01
3598;BME280;1813;52.016;8.714;2023-04-01T08:06:11;-16261.94;;;-139.71;90.50
3598;BME280;1813;52.016;8.714;2023-04-01T08:08:57;-16261.94;;;-139.71;90.43
3598;BME280;1813;52.016;8.714;2023-04-01T08:12:15;-16261.94;;;-139.71;90.10
3598;BME280;1813;52.016;8.714;2023-04-01T08:15:15;-16261.94;;;-139.71;89.66
3598;BME280;1813;52.016;8.714;2023-04-01T08:18:09;-16261.94;;;-139.71;89.90
3598;BME280;1813;52.016;8.714;2023-04-01T08:20:48;-16261.94;;;-139.71;89.86
3598;BME280;1813;52.016;8.714;2023-04-01T08:23:25;-16261.94;;;-139.71;90.19
3598;BME280;1813;52.016;8.714;2023-04-01T08:26:04;-16261.94;;;-139.71;89.96
3598;BME280;1813;52.016;8.714;2023-04-01T08:28:50;-16261.94;;;-139.71;89.99
3598;BME280;1813;52.016;8.714;2023-04-01T08:31:35;-16261.94;;;-139.71;90.08
3598;BME280;1813;52.016;8.714;2023-04-01T08:34:15;-16261.94;;;-139.71;90.25
3598;BME280;1813;52.016;8.714;2023-04-01T08:36:58;-16261.94;;;-139.71;90.00
3598;BME280;1813;52.016;8.714;2023-04-01T08:39:37;-16261.94;;;-139.71;89.81
3598;BME280;1813;52.016;8.714;2023-04-01T08:42:38;-16261.94;;;-139.71;89.61
3598;BME280;1813;52.016;8.714;2023-04-01T08:45:29;-16261.94;;;-139.71;89.40
3598;BME280;1813;52.016;8.714;2023-04-01T08:48:31;-16261.94;;;-139.71;89.82
3598;BME280;1813;52.016;8.714;2023-04-01T08:51:42;-16261.94;;;-139.71;89.85
3598;BME280;1813;52.016;8.714;2023-04-01T08:54:37;-16261.94;;;-139.71;89.76
3598;BME280;1813;52.016;8.714;2023-04-01T08:57:21;-16261.94;;;-139.71;90.00
3598;BME280;1813;52.016;8.714;2023-04-01T09:00:31;-16261.94;;;-139.71;89.80
3598;BME280;1813;52.016;8.714;2023-04-01T09:03:34;-16261.94;;;-139.71;89.13
3598;BME280;1813;52.016;8.714;2023-04-01T09:06:38;-16261.94;;;-139.71;89.02
3598;BME280;1813;52.016;8.714;2023-04-01T09:09:40;-16261.94;;;-139.71;89.04
3598;BME280;1813;52.016;8.714;2023-04-01T09:12:28;-16261.94;;;-139.71;88.67
3598;BME280;1813;52.016;8.714;2023-04-01T09:15:19;-16261.94;;;-139.71;88.54
3598;BME280;1813;52.016;8.714;2023-04-01T09:18:12;-16261.94;;;-139.71;88.47
3598;BME280;1813;52.016;8.714;2023-04-01T09:21:22;-16261.94;;;-139.71;88.67
3598;BME280;1813;52.016;8.714;2023-04-01T09:24:26;-16261.94;;;-139.71;88.79
3598;BME280;1813;52.016;8.714;2023-04-01T09:27:11;-16261.94;;;-139.71;89.15
3598;BME280;1813;52.016;8.714;2023-04-01T09:33:12;-16261.94;;;-139.71;88.46
3598;BME280;1813;52.016;8.714;2023-04-01T09:36:01;-16261.94;;;-139.71;88.48
3598;BME280;1813;52.016;8.714;2023-04-01T09:38:52;-16261.94;;;-139.71;88.52
3598;BME280;1813;52.016;8.714;2023-04-01T09:41:30;-16261.94;;;-139.71;88.18
3598;BME280;1813;52.016;8.714;2023-04-01T09:44:18;-16261.94;;;-139.71;89.26
3598;BME280;1813;52.016;8.714;2023-04-01T09:47:26;-16261.94;;;-139.71;88.83
3598;BME280;1813;52.016;8.714;2023-04-01T09:50:30;-16261.94;;;-139.71;89.29
3598;BME280;1813;52.016;8.714;2023-04-01T09:53:16;-16261.94;;;-139.71;88.91
3598;BME280;1813;52.016;8.714;2023-04-01T10:09:20;-16261.94;;;-139.71;88.17
3598;BME280;1813;52.016;8.714;2023-04-01T10:12:32;-16261.94;;;-139.71;88.20
3598;BME280;1813;52.016;8.714;2023-04-01T10:15:29;-16261.94;;;-139.71;88.65
3598;BME280;1813;52.016;8.714;2023-04-01T10:21:42;-16261.94;;;-139.71;87.37
3598;BME280;1813;52.016;8.714;2023-04-01T10:27:42;-16261.94;;;-139.71;88.08
3598;BME280;1813;52.016;8.714;2023-04-01T10:31:03;-16261.94;;;-139.71;88.00
3598;BME280;1813;52.016;8.714;2023-04-01T10:36:53;-16261.94;;;-139.71;89.11
3598;BME280;1813;52.016;8.714;2023-04-01T10:50:13;-16261.94;;;-139.71;88.04
3598;BME280;1813;52.016;8.714;2023-04-01T10:53:18;-16261.94;;;-139.71;86.92
3598;BME280;1813;52.016;8.714;2023-04-01T10:56:39;-16261.94;;;-139.71;85.04
3598;BME280;1813;52.016;8.714;2023-04-01T11:09:47;-16261.94;;;-139.71;83.68
3598;BME280;1813;52.016;8.714;2023-04-01T11:22:11;-16261.94;;;-139.71;82.47
3598;BME280;1813;52.016;8.714;2023-04-01T11:31:37;-16261.94;;;-139.71;86.02
3598;BME280;1813;52.016;8.714;2023-04-01T11:34:26;-16261.94;;;-139.71;86.04
3598;BME280;1813;52.016;8.714;2023-04-01T11:37:15;-16261.94;;;-139.71;86.16
3598;BME280;1813;52.016;8.714;2023-04-01T11:40:20;-16261.94;;;-139.71;86.32
3598;BME280;1813;52.016;8.714;2023-04-01T11:43:22;-16261.94;;;-139.71;85.70
3598;BME280;1813;52.016;8.714;2023-04-01T11:46:27;-16261.94;;;-139.71;85.36
3598;BME280;1813;52.016;8.714;2023-04-01T11:49:12;-16261.94;;;-139.71;85.61
3598;BME280;1813;52.016;8.714;2023-04-01T11:52:17;-16261.94;;;-139.71;85.32
3598;BME280;1813;52.016;8.714;2023-04-01T11:55:10;-16261.94;;;-139.71;84.82
3598;BME280;1813;52.016;8.714;2023-04-01T11:58:03;-16261.94;;;-139.71;85.00
3598;BME280;1813;52.016;8.714;2023-04-01T12:00:58;-16261.94;;;-139.71;85.62
3598;BME280;1813;52.016;8.714;2023-04-01T12:03:43;-16261.94;;;-139.71;85.96
3598;BME280;1813;52.016;8.714;2023-04-01T12:06:23;-16261.94;;;-139.71;85.25
3598;BME280;1813;52.016;8.714;2023-04-01T12:09:11;-16261.94;;;-139.71;85.00
3598;BME280;1813;52.016;8.714;2023-04-01T12:11:52;-16261.94;;;-139.71;85.05
3598;BME280;1813;52.016;8.714;2023-04-01T12:14:41;-16261.94;;;-139.71;85.78
3598;BME280;1813;52.016;8.714;2023-04-01T12:17:28;-16261.94;;;-139.71;85.95
3598;BME280;1813;52.016;8.714;2023-04-01T12:20:21;-16261.94;;;-139.71;86.18
3598;BME280;1813;52.016;8.714;2023-04-01T12:23:06;-16261.94;;;-139.71;86.59
3598;BME280;1813;52.016;8.714;2023-04-01T12:26:03;-16261.94;;;-139.71;85.53
3598;BME280;1813;52.016;8.714;2023-04-01T12:28:47;-16261.94;;;-139.71;84.71
3598;BME280;1813;52.016;8.714;2023-04-01T12:31:39;-16261.94;;;-139.71;84.36
3598;BME280;1813;52.016;8.714;2023-04-01T12:34:39;-16261.94;;;-139.71;85.09
3598;BME280;1813;52.016;8.714;2023-04-01T12:37:20;-16261.94;;;-139.71;85.31
3598;BME280;1813;52.016;8.714;2023-04-01T12:43:27;-16261.94;;;-139.71;84.92
3598;BME280;1813;52.016;8.714;2023-04-01T12:46:11;-16261.94;;;-139.71;84.50
3598;BME280;1813;52.016;8.714;2023-04-01T12:49:05;-16261.94;;;-139.71;83.37
3598;BME280;1813;52.016;8.714;2023-04-01T12:52:00;-16261.94;;;-139.71;82.74
3598;BME280;1813;52.016;8.714;2023-04-01T12:55:01;-16261.94;;;-139.71;82.62
3598;BME280;1813;52.016;8.714;2023-04-01T13:04:20;-16261.94;;;-139.71;83.68
3598;BME280;1813;52.016;8.714;2023-04-01T13:07:12;-16261.94;;;-139.71;83.41
3598;BME280;1813;52.016;8.714;2023-04-01T13:09:54;-16261.94;;;-139.71;82.98
3598;BME280;1813;52.016;8.714;2023-04-01T13:12:53;-16261.94;;;-139.71;82.03
3598;BME280;1813;52.016;8.714;2023-04-01T13:15:35;-16261.94;;;-139.71;81.71
3598;BME280;1813;52.016;8.714;2023-04-01T13:18:19;-16261.94;;;-139.71;82.69
3598;BME280;1813;52.016;8.714;2023-04-01T13:21:05;-16261.94;;;-139.71;82.30
3598;BME280;1813;52.016;8.714;2023-04-01T13:23:58;-16261.94;;;-139.71;81.65
3598;BME280;1813;52.016;8.714;2023-04-01T13:26:41;-16261.94;;;-139.71;81.80
3598;BME280;1813;52.016;8.714;2023-04-01T13:29:28;-16261.94;;;-139.71;82.24
3598;BME280;1813;52.016;8.714;2023-04-01T13:32:18;-16261.94;;;-139.71;82.67
3598;BME280;1813;52.016;8.714;2023-04-01T13:35:10;-16261.94;;;-139.71;82.49
3598;BME280;1813;52.016;8.714;2023-04-01T13:37:58;-16261.94;;;-139.71;82.50
3598;BME280;1813;52.016;8.714;2023-04-01T13:40:41;-16261.94;;;-139.71;82.79
3598;BME280;1813;52.016;8.714;2023-04-01T13:43:23;-16261.94;;;-139.71;83.01
3598;BME280;1813;52.016;8.714;2023-04-01T13:46:15;-16261.94;;;-139.71;82.94
3598;BME280;1813;52.016;8.714;2023-04-01T13:52:21;-16261.94;;;-139.71;83.68
3598;BME280;1813;52.016;8.714;2023-04-01T13:55:21;-16261.94;;;-139.71;82.75
3598;BME280;1813;52.016;8.714;2023-04-01T13:58:13;-16261.94;;;-139.71;82.77
3598;BME280;1813;52.016;8.714;2023-04-01T14:01:04;-16261.94;;;-139.71;82.85
3598;BME280;1813;52.016;8.714;2023-04-01T14:04:01;-16261.94;;;-139.71;83.07
3598;BME280;1813;52.016;8.714;2023-04-01T14:06:48;-16261.94;;;-139.71;83.44
3598;BME280;1813;52.016;8.714;2023-04-01T14:09:49;-16261.94;;;-139.71;83.95
3598;BME280;1813;52.016;8.714;2023-04-01T14:12:37;-16261.94;;;-139.71;83.98
3598;BME280;1813;52.016;8.714;2023-04-01T14:15:25;-16261.94;;;-139.71;83.61
3598;BME280;1813;52.016;8.714;2023-04-01T14:18:16;-16261.94;;;-139.71;83.71
3598;BME280;1813;52.016;8.714;2023-04-01T14:21:07;-16261.94;;;-139.71;84.20
3598;BME280;1813;52.016;8.714;2023-04-01T14:24:08;-16261.94;;;-139.71;83.84
3598;BME280;1813;52.016;8.714;2023-04-01T14:27:03;-16261.94;;;-139.71;83.47
3598;BME280;1813;52.016;8.714;2023-04-01T14:29:52;-16261.94;;;-139.71;84.25
3598;BME280;1813;52.016;8.714;2023-04-01T14:32:39;-16261.94;;;-139.71;83.86
3598;BME280;1813;52.016;8.714;2023-04-01T14:35:29;-16261.94;;;-139.71;83.84
3598;BME280;1813;52.016;8.714;2023-04-01T14:38:26;-16261.94;;;-139.71;83.51
3598;BME280;1813;52.016;8.714;2023-04-01T14:41:16;-16261.94;;;-139.71;83.94
3598;BME280;1813;52.016;8.714;2023-04-01T14:44:08;-16261.94;;;-139.71;83.87
3598;BME280;1813;52.016;8.714;2023-04-01T14:47:15;-16261.94;;;-139.71;83.67
3598;BME280;1813;52.016;8.714;2023-04-01T14:50:05;-16261.94;;;-139.71;83.84
3598;BME280;1813;52.016;8.714;2023-04-01T14:52:43;-16261.94;;;-139.71;83.82
3598;BME280;1813;52.016;8.714;2023-04-01T14:55:27;-16261.94;;;-139.71;83.30
3598;BME280;1813;52.016;8.714;2023-04-01T14:58:10;-16261.94;;;-139.71;83.55
3598;BME280;1813;52.016;8.714;2023-04-01T15:00:52;-16261.94;;;-139.71;83.92
3598;BME280;1813;52.016;8.714;2023-04-01T15:03:36;-16261.94;;;-139.71;84.23
3598;BME280;1813;52.016;8.714;2023-04-01T15:06:34;-16261.94;;;-139.71;84.46
3598;BME280;1813;52.016;8.714;2023-04-01T15:09:17;-16261.94;;;-139.71;85.26
3598;BME280;1813;52.016;8.714;2023-04-01T15:12:07;-16261.94;;;-139.71;85.24
3598;BME280;1813;52.016;8.714;2023-04-01T15:15:09;-16261.94;;;-139.71;85.50
3598;BME280;1813;52.016;8.714;2023-04-01T15:17:58;-16261.94;;;-139.71;85.49
3598;BME280;1813;52.016;8.714;2023-04-01T15:21:10;-16261.94;;;-139.71;86.17
3598;BME280;1813;52.016;8.714;2023-04-01T15:23:56;-16261.94;;;-139.71;86.55
3598;BME280;1813;52.016;8.714;2023-04-01T15:26:55;-16261.94;;;-139.71;86.69
3598;BME280;1813;52.016;8.714;2023-04-01T15:29:51;-16261.94;;;-139.71;87.11
3598;BME280;1813;52.016;8.714;2023-04-01T15:32:41;-16261.94;;;-139.71;87.20
3598;BME280;1813;52.016;8.714;2023-04-01T15:35:24;-16261.94;;;-139.71;87.33
3598;BME280;1813;52.016;8.714;2023-04-01T15:38:06;-16261.94;;;-139.71;87.55
3598;BME280;1813;52.016;8.714;2023-04-01T15:40:47;-16261.94;;;-139.71;87.41
3598;BME280;1813;52.016;8.714;2023-04-01T15:43:29;-16261.94;;;-139.71;86.95
3598;BME280;1813;52.016;8.714;2023-04-01T15:49:15;-16261.94;;;-139.71;87.67
3598;BME280;1813;52.016;8.714;2023-04-01T15:52:03;-16261.94;;;-139.71;87.82